createdAt,value
2018-06-19T00:00:24.947Z,2.40
2018-06-19T00:03:27.025Z,2.37
2018-06-19T00:06:28.955Z,2.40
2018-06-19T00:09:31.038Z,2.40
2018-06-19T00:12:33.084Z,2.40
2018-06-19T00:15:35.176Z,2.43
2018-06-19T00:18:40.449Z,2.43
2018-06-19T00:21:47.578Z,2.50
2018-06-19T00:24:49.655Z,2.57
2018-06-19T00:27:51.634Z,2.50
2018-06-19T00:30:53.598Z,2.77
2018-06-19T00:33:55.658Z,2.70
2018-06-19T00:36:57.750Z,2.40
2018-06-19T00:39:59.921Z,2.40
2018-06-19T00:43:02.271Z,2.67
2018-06-19T00:46:05.413Z,2.77
2018-06-19T00:49:07.465Z,2.60
2018-06-19T00:52:09.615Z,2.40
2018-06-19T00:55:11.563Z,2.63
2018-06-19T00:58:13.515Z,2.67
2018-06-19T01:01:15.693Z,2.77
2018-06-19T01:04:18.544Z,2.30
2018-06-19T01:07:20.658Z,2.70
2018-06-19T01:10:22.719Z,2.70
2018-06-19T01:13:24.821Z,2.60
2018-06-19T01:16:26.890Z,2.43
2018-06-19T01:19:30.071Z,2.70
2018-06-19T01:22:32.123Z,2.50
2018-06-19T01:25:34.090Z,3.20
2018-06-19T01:28:38.175Z,2.80
2018-06-19T01:31:41.238Z,2.90
2018-06-19T01:34:43.287Z,2.90
2018-06-19T01:37:45.363Z,2.70
2018-06-19T01:40:48.455Z,2.60
2018-06-19T01:43:50.406Z,2.83
2018-06-19T01:46:52.514Z,2.60
2018-06-19T01:49:54.553Z,2.90
2018-06-19T01:52:56.793Z,3.30
2018-06-19T01:55:58.834Z,2.60
2018-06-19T01:59:01.024Z,2.70
2018-06-19T02:02:03.154Z,3.00
2018-06-19T02:05:05.465Z,2.87
2018-06-19T02:08:07.483Z,2.60
2018-06-19T02:11:09.459Z,3.03
2018-06-19T02:14:11.518Z,2.73
2018-06-19T02:17:13.605Z,2.73
2018-06-19T02:20:15.642Z,2.53
2018-06-19T02:23:18.951Z,2.63
2018-06-19T02:26:22.065Z,2.80
2018-06-19T02:29:24.123Z,2.90
2018-06-19T02:32:26.258Z,3.50
2018-06-19T02:35:28.333Z,2.70
2018-06-19T02:38:30.403Z,2.50
2018-06-19T02:41:32.480Z,2.77
2018-06-19T02:44:34.513Z,2.80
2018-06-19T02:47:36.619Z,2.83
2018-06-19T02:50:38.704Z,2.90
2018-06-19T02:53:41.794Z,2.60
2018-06-19T02:56:49.050Z,2.83
2018-06-19T02:59:51.139Z,2.90
2018-06-19T03:02:53.215Z,2.80
2018-06-19T03:05:55.275Z,2.87
2018-06-19T03:08:57.343Z,3.13
2018-06-19T03:11:59.404Z,2.90
2018-06-19T03:15:01.465Z,2.83
2018-06-19T03:18:03.443Z,2.93
2018-06-19T03:21:05.499Z,2.90
2018-06-19T03:24:07.587Z,3.37
2018-06-19T03:27:09.626Z,3.07
2018-06-19T03:30:11.825Z,3.50
2018-06-19T03:33:13.787Z,3.30
2018-06-19T03:36:15.834Z,3.03
2018-06-19T03:39:18.842Z,3.10
2018-06-19T03:42:20.933Z,2.97
2018-06-19T03:45:24.029Z,3.10
2018-06-19T03:48:26.097Z,3.17
2018-06-19T03:51:28.169Z,3.50
2018-06-19T03:54:30.226Z,3.10
2018-06-19T03:57:32.307Z,3.50
2018-06-19T04:00:34.326Z,3.90
2018-06-19T04:03:36.330Z,3.40
2018-06-19T04:06:38.494Z,3.63
2018-06-19T04:09:40.674Z,3.43
2018-06-19T04:12:42.819Z,3.20
2018-06-19T04:15:45.936Z,3.30
2018-06-19T04:18:49.255Z,3.10
2018-06-19T04:21:51.284Z,3.70
2018-06-19T04:24:53.636Z,3.77
2018-06-19T04:27:56.015Z,3.47
2018-06-19T04:30:58.099Z,3.27
2018-06-19T04:34:00.173Z,3.13
2018-06-19T04:37:02.239Z,3.50
2018-06-19T04:40:04.207Z,3.60
2018-06-19T04:43:06.267Z,3.60
2018-06-19T04:46:08.324Z,3.40
2018-06-19T04:49:10.278Z,3.53
2018-06-19T04:52:12.386Z,4.83
2018-06-19T04:55:14.300Z,3.77
2018-06-19T04:58:16.644Z,3.67
2018-06-19T05:01:19.918Z,3.97
2018-06-19T05:04:22.012Z,4.47
2018-06-19T05:07:24.180Z,4.30
2018-06-19T05:10:26.226Z,4.10
2018-06-19T05:13:28.369Z,3.70
2018-06-19T05:16:30.339Z,3.40
2018-06-19T05:19:32.348Z,4.47
2018-06-19T05:22:34.409Z,4.50
2018-06-19T05:25:36.493Z,3.93
2018-06-19T05:28:39.535Z,4.30
2018-06-19T05:31:41.619Z,3.97
2018-06-19T05:34:43.706Z,3.93
2018-06-19T05:37:45.668Z,4.60
2018-06-19T05:40:48.865Z,3.90
2018-06-19T05:43:51.163Z,3.80
2018-06-19T05:46:53.199Z,4.27
2018-06-19T05:49:55.106Z,3.50
2018-06-19T05:52:57.142Z,3.90
2018-06-19T05:55:59.075Z,3.40
2018-06-19T05:59:01.224Z,3.43
2018-06-19T06:02:03.287Z,3.53
2018-06-19T06:05:05.455Z,3.50
2018-06-19T06:08:07.435Z,3.67
2018-06-19T06:11:09.509Z,3.60
2018-06-19T06:14:11.562Z,3.40
2018-06-19T06:17:13.603Z,2.90
2018-06-19T06:20:15.675Z,2.97
2018-06-19T06:23:18.954Z,3.10
2018-06-19T06:26:21.049Z,2.93
2018-06-19T06:29:23.091Z,2.57
2018-06-19T06:32:25.181Z,2.60
2018-06-19T06:35:27.245Z,2.67
2018-06-19T06:38:29.342Z,2.57
2018-06-19T06:41:31.519Z,2.60
2018-06-19T06:44:33.471Z,2.77
2018-06-19T06:47:35.480Z,3.00
2018-06-19T06:50:37.583Z,2.70
2018-06-19T06:53:39.580Z,2.90
2018-06-19T06:56:41.641Z,2.73
2018-06-19T06:59:43.776Z,2.93
2018-06-19T07:02:45.887Z,2.73
2018-06-19T07:05:47.911Z,3.23
2018-06-19T07:08:50.927Z,2.83
2018-06-19T07:11:52.989Z,2.83
2018-06-19T07:14:55.104Z,3.17
2018-06-19T07:17:57.112Z,3.37
2018-06-19T07:20:59.189Z,3.10
2018-06-19T07:24:01.254Z,3.20
2018-06-19T07:27:03.452Z,2.63
2018-06-19T07:30:05.617Z,2.73
2018-06-19T07:33:07.637Z,2.57
2018-06-19T07:36:09.750Z,2.80
2018-06-19T07:39:11.714Z,2.87
2018-06-19T07:42:14.103Z,2.63
2018-06-19T07:45:16.210Z,2.40
2018-06-19T07:48:19.063Z,2.53
2018-06-19T07:51:22.188Z,2.60
2018-06-19T07:54:25.651Z,2.77
2018-06-19T07:57:27.733Z,2.87
2018-06-19T08:00:29.743Z,2.80
2018-06-19T08:03:31.892Z,3.00
2018-06-19T08:06:34.371Z,2.87
2018-06-19T08:09:37.040Z,2.97
2018-06-19T08:12:39.273Z,3.10
2018-06-19T08:15:41.310Z,3.00
2018-06-19T08:18:43.337Z,2.80
2018-06-19T08:21:45.372Z,2.93
2018-06-19T08:24:47.442Z,2.90
2018-06-19T08:27:49.691Z,3.07
2018-06-19T08:30:51.788Z,2.90
2018-06-19T08:33:53.821Z,2.80
2018-06-19T08:36:55.911Z,3.00
2018-06-19T08:39:57.963Z,3.43
2018-06-19T08:43:00.037Z,3.20
2018-06-19T08:46:02.074Z,2.90
2018-06-19T08:49:04.438Z,3.63
2018-06-19T08:52:06.583Z,3.60
2018-06-19T08:55:08.730Z,3.43
2018-06-19T08:58:13.993Z,2.40
2018-06-19T09:01:16.046Z,2.60
2018-06-19T09:04:18.139Z,2.50
2018-06-19T09:07:22.744Z,2.40
2018-06-19T09:10:24.861Z,2.40
2018-06-19T09:13:27.092Z,2.60
2018-06-19T09:16:29.061Z,2.70
2018-06-19T09:19:31.171Z,2.90
2018-06-19T09:22:33.183Z,2.43
2018-06-19T09:25:36.424Z,2.87
2018-06-19T09:28:38.474Z,3.10
2018-06-19T09:31:40.571Z,2.90
2018-06-19T09:34:42.473Z,2.60
2018-06-19T09:37:44.565Z,2.60
2018-06-19T09:40:47.689Z,2.57
2018-06-19T09:43:50.873Z,2.40
2018-06-19T09:46:52.900Z,2.50
2018-06-19T09:49:54.988Z,2.53
2018-06-19T09:52:57.183Z,2.37
2018-06-19T09:55:59.453Z,2.23
2018-06-19T09:59:01.815Z,2.50
2018-06-19T10:02:04.159Z,2.60
2018-06-19T10:05:06.157Z,2.00
2018-06-19T10:08:08.231Z,2.20
2018-06-19T10:11:10.226Z,2.13
2018-06-19T10:14:12.261Z,2.20
2018-06-19T10:17:14.374Z,2.30
2018-06-19T10:20:16.363Z,2.10
2018-06-19T10:23:18.499Z,1.97
2018-06-19T10:26:22.117Z,1.97
2018-06-19T10:29:24.126Z,2.27
2018-06-19T10:32:26.174Z,1.80
2018-06-19T10:35:28.297Z,2.27
2018-06-19T10:38:30.367Z,2.00
2018-06-19T10:41:32.521Z,2.00
2018-06-19T10:44:34.527Z,2.00
2018-06-19T10:47:36.519Z,1.77
2018-06-19T10:50:40.665Z,1.50
2018-06-19T10:53:42.747Z,1.70
2018-06-19T10:56:44.778Z,1.60
2018-06-19T10:59:46.884Z,2.07
2018-06-19T11:02:48.947Z,2.40
2018-06-19T11:05:52.534Z,1.77
2018-06-19T11:08:54.610Z,1.70
2018-06-19T11:11:56.685Z,1.80
2018-06-19T11:14:58.858Z,1.70
2018-06-19T11:18:00.912Z,1.67
2018-06-19T11:21:03.009Z,1.40
2018-06-19T11:24:15.165Z,1.80
2018-06-19T11:27:17.160Z,1.50
2018-06-19T11:30:19.250Z,1.50
2018-06-19T11:33:22.095Z,1.60
2018-06-19T11:36:24.178Z,1.70
2018-06-19T11:39:26.254Z,1.83
2018-06-19T11:42:28.341Z,1.80
2018-06-19T11:45:30.407Z,1.80
2018-06-19T11:48:32.370Z,1.70
2018-06-19T11:51:34.554Z,1.50
2018-06-19T11:54:36.764Z,1.60
2018-06-19T11:57:38.758Z,1.60
2018-06-19T12:00:40.848Z,1.90
2018-06-19T12:03:42.875Z,1.90
2018-06-19T12:06:44.992Z,1.60
2018-06-19T12:09:47.059Z,1.70
2018-06-19T12:12:49.216Z,1.70
2018-06-19T12:15:52.522Z,1.90
2018-06-19T12:18:54.555Z,1.90
2018-06-19T12:21:56.577Z,1.60
2018-06-19T12:24:58.983Z,2.17
2018-06-19T12:28:01.007Z,2.20
2018-06-19T12:31:03.180Z,2.30
2018-06-19T12:34:05.252Z,2.10
2018-06-19T12:37:07.350Z,2.00
2018-06-19T12:40:10.611Z,2.00
2018-06-19T12:43:12.704Z,2.17
2018-06-19T12:46:14.714Z,2.43
2018-06-19T12:51:28.341Z,2.63
2018-06-19T12:56:42.307Z,2.67
2018-06-19T12:59:44.350Z,2.60
2018-06-19T13:03:55.619Z,2.90
2018-06-19T13:06:57.780Z,2.70
2018-06-19T13:10:00.350Z,2.70
2018-06-19T13:13:23.995Z,2.93
2018-06-19T13:16:37.780Z,2.70
2018-06-19T13:19:51.581Z,2.93
2018-06-19T13:22:53.708Z,2.57
2018-06-19T13:25:55.914Z,2.80
2018-06-19T13:29:35.894Z,2.50
2018-06-19T13:32:38.544Z,2.60
2018-06-19T13:35:40.585Z,2.60
2018-06-19T13:38:52.226Z,2.60
2018-06-19T13:42:06.171Z,2.50
2018-06-19T13:45:08.215Z,2.40
2018-06-19T13:48:10.369Z,2.60
2018-06-19T13:51:12.750Z,2.60
2018-06-19T13:54:14.807Z,2.30
2018-06-19T13:57:40.306Z,2.40
2018-06-19T14:00:42.386Z,2.00
2018-06-19T14:03:44.535Z,2.03
2018-06-19T14:06:46.623Z,2.00
2018-06-19T14:10:00.341Z,2.30
2018-06-19T14:13:02.706Z,2.00
2018-06-19T14:16:04.832Z,2.00
2018-06-19T14:19:07.930Z,2.20
2018-06-19T14:22:09.871Z,1.97
2018-06-19T14:25:11.943Z,1.80
2018-06-19T14:28:14.006Z,1.63
2018-06-19T14:31:16.112Z,2.00
2018-06-19T14:34:18.191Z,1.93
2018-06-19T14:37:20.225Z,1.93
2018-06-19T14:40:24.319Z,1.80
2018-06-19T14:43:26.382Z,1.83
2018-06-19T14:46:28.419Z,1.90
2018-06-19T14:49:30.536Z,1.80
2018-06-19T14:52:32.758Z,1.83
2018-06-19T14:55:34.743Z,1.77
2018-06-19T14:58:36.880Z,2.03
2018-06-19T15:01:39.034Z,1.97
2018-06-19T15:04:41.108Z,2.00
2018-06-19T15:07:49.396Z,1.77
2018-06-19T15:10:52.257Z,1.80
2018-06-19T15:13:54.448Z,1.57
2018-06-19T15:16:56.420Z,1.90
2018-06-19T15:19:58.474Z,1.87
2018-06-19T15:23:00.559Z,1.83
2018-06-19T15:26:03.046Z,1.70
2018-06-19T15:29:05.124Z,2.00
2018-06-19T15:32:07.187Z,1.93
2018-06-19T15:35:09.360Z,1.87
2018-06-19T15:38:11.428Z,1.80
2018-06-19T15:41:13.472Z,1.77
2018-06-19T15:44:15.479Z,1.80
2018-06-19T15:47:17.639Z,1.77
2018-06-19T15:50:19.718Z,1.67
2018-06-19T15:53:22.272Z,1.87
2018-06-19T15:56:24.492Z,2.23
2018-06-19T15:59:26.514Z,1.90
2018-06-19T16:02:28.689Z,1.80
2018-06-19T16:05:30.622Z,1.80
2018-06-19T16:08:32.586Z,2.60
2018-06-19T16:11:34.803Z,1.77
2018-06-19T16:14:36.819Z,1.90
2018-06-19T16:17:38.831Z,1.80
2018-06-19T16:20:41.016Z,1.60
2018-06-19T16:23:43.045Z,1.70
2018-06-19T16:26:45.335Z,1.37
2018-06-19T16:29:47.511Z,1.70
2018-06-19T16:32:49.543Z,1.63
2018-06-19T16:35:52.763Z,1.40
2018-06-19T16:38:54.935Z,1.50
2018-06-19T16:41:57.007Z,1.40
2018-06-19T16:44:59.327Z,1.40
2018-06-19T16:48:01.631Z,1.20
2018-06-19T16:51:03.851Z,1.30
2018-06-19T16:54:05.896Z,1.37
2018-06-19T16:57:07.954Z,1.20
2018-06-19T17:00:10.241Z,1.63
2018-06-19T17:03:12.316Z,1.40
2018-06-19T17:06:14.263Z,1.40
2018-06-19T17:09:16.326Z,1.50
2018-06-19T17:12:18.278Z,1.40
2018-06-19T17:15:20.376Z,1.53
2018-06-19T17:18:23.379Z,1.40
2018-06-19T17:21:25.636Z,1.20
2018-06-19T17:24:27.723Z,1.50
2018-06-19T17:27:29.792Z,1.10
2018-06-19T17:30:33.890Z,1.20
2018-06-19T17:33:35.966Z,1.30
2018-06-19T17:36:38.010Z,1.20
2018-06-19T17:39:40.115Z,1.33
2018-06-19T17:42:42.170Z,1.10
2018-06-19T17:45:44.245Z,1.40
2018-06-19T17:48:46.318Z,1.20
2018-06-19T17:51:48.407Z,1.20
2018-06-19T17:54:50.465Z,1.10
2018-06-19T17:57:53.551Z,1.20
2018-06-19T18:00:55.744Z,0.90
2018-06-19T18:03:58.841Z,1.27
2018-06-19T18:07:01.003Z,1.17
2018-06-19T18:10:03.084Z,1.10
2018-06-19T18:13:05.111Z,2.70
2018-06-19T18:16:07.180Z,1.40
2018-06-19T18:19:09.249Z,1.30
2018-06-19T18:22:11.703Z,1.20
2018-06-19T18:25:13.651Z,1.20
2018-06-19T18:28:15.754Z,1.13
2018-06-19T18:31:18.269Z,1.50
2018-06-19T18:34:20.817Z,1.20
2018-06-19T18:37:24.758Z,1.30
2018-06-19T18:40:26.798Z,0.90
2018-06-19T18:43:29.277Z,0.90
2018-06-19T18:46:31.317Z,1.23
2018-06-19T18:49:33.869Z,0.97
2018-06-19T18:52:37.378Z,0.97
2018-06-19T18:55:39.900Z,1.10
2018-06-19T18:58:42.407Z,1.60
2018-06-19T19:01:44.942Z,1.10
2018-06-19T19:04:46.960Z,1.53
2018-06-19T19:07:49.343Z,1.20
2018-06-19T19:10:53.994Z,1.27
2018-06-19T19:13:56.478Z,1.20
2018-06-19T19:17:04.316Z,1.17
2018-06-19T19:20:07.087Z,1.40
2018-06-19T19:23:09.599Z,1.33
2018-06-19T19:26:11.560Z,1.40
2018-06-19T19:29:19.772Z,1.80
2018-06-19T19:32:23.573Z,1.60
2018-06-19T19:35:25.725Z,1.57
2018-06-19T19:38:33.819Z,2.03
2018-06-19T19:41:36.215Z,2.00
2018-06-19T19:44:38.280Z,1.87
2018-06-19T19:47:46.489Z,1.90
2018-06-19T19:50:48.758Z,1.90
2018-06-19T19:53:51.242Z,1.23
2018-06-19T19:57:00.847Z,1.30
2018-06-19T20:00:04.209Z,1.50
2018-06-19T20:03:06.819Z,1.60
2018-06-19T20:06:09.316Z,1.40
2018-06-19T20:09:11.875Z,1.63
2018-06-19T20:12:14.720Z,1.20
2018-06-19T20:15:17.398Z,1.70
2018-06-19T20:18:19.947Z,1.70
2018-06-19T20:21:23.355Z,1.50
2018-06-19T20:24:25.850Z,1.40
2018-06-19T20:27:27.946Z,1.83
2018-06-19T20:30:37.119Z,1.90
2018-06-19T20:33:39.487Z,1.73
2018-06-19T20:36:41.525Z,1.70
2018-06-19T20:39:44.030Z,1.60
2018-06-19T20:42:46.578Z,1.90
2018-06-19T20:45:48.759Z,1.90
2018-06-19T20:48:51.151Z,1.90
2018-06-19T20:51:54.593Z,1.80
2018-06-19T20:54:57.137Z,2.17
2018-06-19T20:57:59.721Z,1.60
2018-06-19T21:01:01.742Z,2.03
2018-06-19T21:04:04.032Z,2.17
2018-06-19T21:07:06.132Z,2.10
2018-06-19T21:10:14.683Z,1.87
2018-06-19T21:13:16.853Z,2.30
2018-06-19T21:16:19.951Z,2.13
2018-06-19T21:19:23.043Z,2.50
2018-06-19T21:22:33.151Z,2.23
2018-06-19T21:25:35.209Z,1.90
2018-06-19T21:28:37.248Z,1.97
2018-06-19T21:31:39.324Z,2.00
2018-06-19T21:34:42.308Z,2.40
2018-06-19T21:37:44.371Z,2.00
2018-06-19T21:40:46.425Z,2.07
2018-06-19T21:43:49.542Z,1.73
2018-06-19T21:46:51.788Z,2.00
2018-06-19T21:49:53.918Z,1.90
2018-06-19T21:52:56.065Z,1.90
2018-06-19T21:55:58.003Z,1.87
2018-06-19T21:59:00.219Z,1.93
2018-06-19T22:02:02.306Z,1.80
2018-06-19T22:05:04.487Z,1.97
2018-06-19T22:08:06.829Z,1.93
2018-06-19T22:11:08.910Z,1.70
2018-06-19T22:14:11.061Z,1.87
2018-06-19T22:17:13.062Z,2.17
2018-06-19T22:20:15.110Z,1.73
2018-06-19T22:23:17.292Z,1.87
2018-06-19T22:26:22.630Z,1.80
2018-06-19T22:29:24.802Z,1.80
2018-06-19T22:32:26.864Z,1.70
2018-06-19T22:35:28.912Z,1.73
2018-06-19T22:38:30.903Z,1.57
2018-06-19T22:41:32.956Z,1.60
2018-06-19T22:44:35.025Z,1.60
2018-06-19T22:47:37.115Z,1.57
2018-06-19T22:50:39.327Z,1.80
2018-06-19T22:53:41.332Z,1.30
2018-06-19T22:56:43.280Z,1.60
2018-06-19T22:59:45.419Z,1.80
2018-06-19T23:02:47.424Z,1.50
2018-06-19T23:05:51.644Z,1.77
2018-06-19T23:08:53.735Z,1.70
2018-06-19T23:11:55.877Z,1.50
2018-06-19T23:14:57.984Z,1.80
2018-06-19T23:18:00.099Z,1.80
2018-06-19T23:21:02.186Z,1.60
2018-06-19T23:24:11.769Z,1.80
2018-06-19T23:27:13.814Z,1.90
2018-06-19T23:30:17.583Z,1.83
2018-06-19T23:33:20.164Z,1.60
2018-06-19T23:36:22.282Z,1.70
2018-06-19T23:39:24.358Z,1.60
2018-06-19T23:42:26.508Z,1.70
2018-06-19T23:45:28.591Z,1.70
2018-06-19T23:48:30.632Z,2.00
2018-06-19T23:51:32.876Z,1.70
2018-06-19T23:54:34.996Z,1.50
2018-06-19T23:57:38.082Z,1.70
